Aviation Digital Data Service (ADDS)

Output produced by METARs form (1450 UTC 27 June 2016)
found at http://www.aviationweather.gov/adds/metars/
 
KSEG 271353Z AUTO 17010G15KT 10SM BKN050 BKN070 23/16 A3004 RMK AO2 SLP167 T02330161
KSEG 271253Z AUTO 20007KT 10SM SCT050 BKN075 22/15 A3006 RMK AO2 SLP175 T02220150
KSEG 271153Z AUTO VRB04KT 10SM BKN060 21/14 A3006 RMK AO2 SLP177 T02110139 10211 20167 55004
KSEG 271053Z AUTO 00000KT 10SM FEW060 20/13 A3006 RMK AO2 SLP176 T02000133 $
KSEG 270953Z AUTO 00000KT 10SM CLR 17/13 A3006 RMK AO2 SLP175 T01720133 $
KSEG 270853Z AUTO 29003KT 10SM CLR 18/13 A3007 RMK AO2 SLP181 T01830128 56010 $
KSEG 270753Z AUTO 00000KT 10SM CLR 20/12 A3008 RMK AO2 SLP181 T02000122 $
KSEG 270653Z AUTO 18005KT 10SM CLR 21/12 A3008 RMK AO2 SLP183 T02110122 $
KSEG 270553Z AUTO 20003KT 10SM 21/12 A3011 RMK AO2 SLP191 T02110122 10272 20211 58002 $
KSEG 270453Z AUTO 21004KT 10SM CLR 22/13 A3011 RMK AO2 SLP193 T02170128 403000150
KSEG 270353Z AUTO VRB03KT 10SM CLR 23/13 A3012 RMK AO2 SLP196 T02280133
KSEG 270253Z AUTO 18005KT 10SM CLR 24/13 A3011 RMK AO2 SLP193 T02390133 53007
KSEG 270153Z AUTO 18005KT 10SM CLR 24/14 A3010 RMK AO2 SLP188 T02440144
KSEG 270053Z AUTO 17005KT 10SM CLR 26/14 A3009 RMK AO2 SLP184 T02560139
KSEG 262353Z AUTO 17006KT 10SM CLR 27/14 A3009 RMK AO2 SLP186 T02720139 10300 20272 56016
KSEG 262253Z AUTO 18010KT 10SM CLR 28/14 A3009 RMK AO2 SLP187 T02830144
KSEG 262153Z AUTO 17009KT 150V210 10SM CLR 29/14 A3012 RMK AO2 SLP195 T02890139
KSEG 262053Z AUTO 18009G14KT 10SM CLR 30/14 A3014 RMK AO2 SLP202 T03000144 56017
KSEG 261953Z AUTO 21007G15KT 10SM CLR 30/14 A3015 RMK AO2 SLP204 T03000139
KSEG 261853Z AUTO VRB06KT 10SM CLR 29/14 A3017 RMK AO2 SLP211 T02940139
KSEG 261753Z AUTO 17012G18KT 10SM CLR 29/14 A3019 RMK AO2 SLP220 T02940139 10294 20206 58012
KSEG 261653Z AUTO 19010G14KT 150V220 10SM FEW055 29/14 A3021 RMK AO2 SLP228 T02890139
KSEG 261553Z AUTO 18004KT 10SM CLR 28/16 A3023 RMK AO2 SLP233 T02780156
KSEG 261453Z AUTO VRB06KT 10SM CLR 27/16 A3023 RMK AO2 SLP232 T02670156 53001
KSEG 261353Z AUTO 10SM CLR 25/16 A3022 RMK AO2 SLP229 T02500161
KSEG 261253Z AUTO VRB03KT 10SM CLR 23/17 A3022 RMK AO2 SLP230 T02330167
KSEG 261153Z AUTO 16003KT 8SM CLR 21/16 A3022 RMK AO2 SLP231 T02060161 10206 20150 53004
KSEG 261053Z AUTO 00000KT 4SM BR CLR 17/16 A3022 RMK AO2 SLP230 T01720156
KSEG 261014Z AUTO 00000KT 3SM BR CLR 16/14 A3022 RMK AO2 T01560139
KSEG 260953Z AUTO 00000KT 2 1/2SM BR CLR 15/14 A3021 RMK AO2 SLP229 T01500139
KSEG 260944Z AUTO 00000KT 2 1/2SM BR CLR 15/14 A3021 RMK AO2 T01500139
KSEG 260853Z AUTO 00000KT 4SM BR CLR 16/14 A3021 RMK AO2 SLP228 T01560139 50001
KSEG 260753Z AUTO 00000KT 5SM BR CLR 16/14 A3022 RMK AO2 SLP229 T01560144
KSEG 260653Z AUTO 32004KT 6SM BR CLR 17/15 A3023 RMK AO2 SLP233 T01670150
KSEG 260553Z AUTO 00000KT 7SM CLR 17/15 A3021 RMK AO2 SLP226 T01720150 10267 20167 53010
KSEG 260453Z AUTO 00000KT 7SM CLR 17/15 A3019 RMK AO2 SLP219 T01720150 402940156
KSEG 260353Z AUTO 00000KT 7SM CLR 18/16 A3018 RMK AO2 SLP217 T01830156
KSEG 260253Z AUTO 00000KT 9SM CLR 19/16 A3018 RMK AO2 SLP215 T01940161 53003